Weather observations for the past three days for
Falls City, Brenner Field Airport
Metric (Imperial)
Date Time (cdt) Wind (kph) Vis. (km) Weather Sky Cond. Temperature (ºC) Relative Humidity Wind Chill (°C) Heat Index (°C) Pressure Precipitation (cm)
Air Dwpt 6 hour altimeter (cm) sea level (mb) 1 hr 3 hr 6 hr
Max. Min.
08 08:53 NE 13 16.09 Fair CLR 15.6 7.2 58% 75.69 1008.7
08 07:53 NE 7 16.09 Mostly Cloudy BKN100 13.3 7.2 67% 75.69 1008.7
08 06:53 SE 7 16.09 A Few Clouds FEW110 11.7 6.7 15 9.4 72% 75.64 1007.7
08 05:53 Calm 16.09 Mostly Cloudy BKN100 11.1 6.7 75% 75.67 1008.1
08 04:53 Calm 16.09 Mostly Cloudy BKN100 11.7 5 64% 75.64 1007.8
08 03:53 N 6 16.09 Mostly Cloudy FEW034 BKN110 10.6 3.9 64% 75.67 1008.2
08 02:53 NE 6 16.09 Fair CLR 10.6 1.7 54% 75.64 1008.1
08 01:53 Calm 16.09 Fair CLR 11.1 1.7 53% 75.69 1008.8
08 00:53 Calm 16.09 Fair CLR 14.4 1.1 24.4 13.3 41% 75.72 1009.1
07 23:53 SE 9 16.09 Fair CLR 16.7 -0.6 31% 75.74 1009.3
07 22:53 Calm 16.09 Fair CLR 16.7 -0.6 31% 75.77 1009.6
07 21:53 Calm 16.09 Fair CLR 18.3 -1.7 26% 75.74 1009.4
07 20:53 N 6 16.09 Overcast OVC120 20 -2.2 22% 75.67 1008.3
07 19:53 N 11 16.09 Fair CLR 22.2 -1.7 20% 75.59 1007.3
07 18:53 W 20 G 30 16.09 Fair CLR 24.4 0.6 25 19.4 21% 25 75.57 1007.1
07 17:53 SW 24 16.09 Partly Cloudy SCT100 24.4 2.8 25% 25 75.59 1007.4
07 16:53 SW 22 G 44 16.09 A Few Clouds FEW100 24.4 1.7 23% 25 75.64 1007.9
07 15:53 SW 35 G 50 16.09 A Few Clouds and Breezy FEW090 23.9 0.6 22% 25 75.72 1009.1
07 14:53 SW 30 G 43 16.09 Fair CLR 22.8 1.7 25% 75.77 1009.9
07 13:53 S 28 G 46 16.09 Fair CLR 21.1 2.2 29% 75.82 1010.4
07 12:53 SW 31 G 44 16.09 Fair CLR 20 1.1 20 8.9 28% 75.9 1011.6
07 11:53 W 22 G 46 16.09 Fair CLR 18.9 2.2 33% 75.97 1012.5
07 10:53 SW 30 G 41 16.09 Fair CLR 17.2 3.3 40% 76.02 1013.2
07 09:53 W 24 16.09 Fair CLR 15.6 3.9 46% 76.07 1013.9
07 08:53 W 22 16.09 Fair CLR 13.3 3.9 53% 76.1 1014.4
07 07:53 SW 20 16.09 Fair CLR 10.6 4.4 66% 76.1 1014.6
07 06:53 SW 19 16.09 Fair CLR 8.9 3.9 9.4 8.3 71% 6 76.1 1014.3
07 05:53 SW 17 16.09 Fair CLR 8.3 3.9 74% 6 76.1 1014.4
07 04:53 SW 17 16.09 Fair CLR 8.9 3.3 68% 7 76.1 1014.5
07 03:53 SW 19 16.09 Fair CLR 8.3 2.8 69% 6 76.15 1015.1
07 02:53 SW 13 16.09 Fair CLR 8.9 1.7 61% 7 76.17 1015.5
07 01:53 SW 15 16.09 Fair CLR 9.4 0.6 55% 7 76.23 1016.1
07 00:53 SW 13 16.09 Fair CLR 8.9 -1.7 16.1 7.8 48% 7 76.25 1016.6
06 23:53 SW 11 16.09 Fair CLR 8.3 -1.1 52% 7 76.25 1016.6
06 22:53 SW 7 16.09 Fair CLR 10 -1.1 46% 9 76.25 1016.7
06 21:53 SW 7 16.09 Fair CLR 10.6 -1.7 43% 76.28 1016.9
06 20:53 W 7 16.09 Fair CLR 11.1 -2.8 38% 76.25 1016.5
06 19:53 NW 6 16.09 Fair CLR 13.3 -3.9 30% 76.23 1016.3
06 18:53 NW 20 16.09 Fair CLR 16.1 -5.6 17.8 13.9 22% 76.23 1016.4
06 17:53 W 20 16.09 Mostly Cloudy BKN090 17.8 -5 21% 76.25 1016.6
06 16:53 NW 13 16.09 Mostly Cloudy BKN085 17.2 -5 22% 76.28 1016.9
06 15:53 NW 22 G 46 16.09 Partly Cloudy SCT085 16.1 -5.6 22% 76.35 1017.7
06 14:53 NW 20 G 31 16.09 Fair CLR 15 -5.6 24% 76.43 1018.7
06 13:53 NW 20 16.09 A Few Clouds FEW080 15 -5 25% 76.4 1018.6
06 12:53 N 19 G 30 16.09 Fair CLR 13.9 -5 14.4 6.7 27% 76.45 1019.2
06 11:53 N 13 16.09 Fair CLR 13.3 -5.6 27% 76.48 1019.7
06 10:53 NW 11 16.09 Fair CLR 12.2 -5 30% 76.48 1019.6
06 09:53 N 7 16.09 Fair CLR 10.6 -4.4 35% 76.48 1019.5
06 08:53 N 11 16.09 Fair CLR 9.4 -3.3 41% 8 76.45 1019.2
06 07:53 NW 9 16.09 Fair CLR 8.3 -1.7 50% 7 76.4 1018.6
06 06:53 NW 6 16.09 Fair CLR 6.7 -1.7 10 6.7 55% 76.3 1017.3
06 05:53 NW 6 16.09 Fair CLR 7.8 -2.2 50% 76.28 1016.9
06 04:53 NW 6 16.09 Fair CLR 8.3 -2.2 48% 76.25 1016.5
06 03:53 N 9 16.09 Overcast OVC110 8.9 -2.2 46% 8 76.2 1015.9
06 02:53 N 7 16.09 Overcast OVC100 8.9 -1.7 48% 8 76.2 1015.7
06 01:53 N 9 16.09 Mostly Cloudy BKN110 9.4 -2.2 44% 8 76.15 1015.1
06 00:53 N 6 16.09 Mostly Cloudy SCT100 BKN120 10 -1.7 13.3 10 44% 76.12 1014.8
05 23:53 N 6 16.09 Mostly Cloudy BKN110 10.6 -2.8 39% 76.15 1015.1
05 22:53 N 11 16.09 Overcast BKN100 OVC120 11.7 -3.3 35% 76.1 1014.5
05 21:53 N 11 16.09 Overcast OVC090 11.7 -1.1 41% 76.02 1013.4
05 20:53 N 6 16.09 Overcast OVC100 12.2 -1.7 38% 75.95 1012.6
05 19:53 N 13 16.09 Overcast OVC100 13.3 -2.8 33% 75.92 1012.1
05 18:53 NW 9 16.09 Overcast OVC090 13.3 -2.2 14.4 13.3 34% 75.9 1011.9
05 17:53 N 13 16.09 Overcast SCT070 OVC100 13.9 -1.7 34% 75.9 1011.8
05 16:53 N 13 16.09 Overcast OVC100 13.9 -2.8 32% 75.9 1011.9
05 15:53 N 15 16.09 Overcast OVC100 14.4 -2.8 31% 75.92 1012.2
05 14:53 N 13 16.09 Overcast OVC095 13.9 -3.3 30% 75.95 1012.4
05 13:53 NW 19 G 31 16.09 Mostly Cloudy BKN075 14.4 -2.2 32% 75.95 1012.4
05 12:53 NW 13 16.09 A Few Clouds FEW095 14.4 0.6 14.4 8.9 39% 75.97 1012.7
05 11:53 Vrbl 9 16.09 A Few Clouds FEW095 12.8 1.7 47% 76 1012.8
05 10:53 NW 9 16.09 Partly Cloudy SCT100 11.7 3.3 57% 76 1012.8
05 09:53 NW 7 16.09 Overcast BKN075 OVC090 10 3.9 66% 9 76 1012.9
Date Time (cdt) Wind (kph) Vis. (km) Weather Sky Cond. Air Dwpt Max. Min. Relative Humidity Wind Chill (°C) Heat Index (°C) altimeter (cm) sea level (mb) 1 hr 3 hr 6 hr
6 hour
Temperature (ºC) Pressure Precipitation (cm)